»·PEaware :: SWA717 KRDD-KPDX

SWA717 :: KRDD-KPDX

FLIGHT INFORMATION

Flight Status: Arrived
Operator:
Southwest Airlines
More flights by this operator :: More flights under this callsign
Pilot: Ty S. (2873)
Aircraft: BOEING 737-200
(B732)
More flights by this aircraft type
Origin: KRDD Redding Mun
United States
Destination: KPDX Portland Intl
United States
More flights between these airports :: More routes between these airports
Route: +KREST3 KREST OED OCITY2
File this flight plan on PilotEdge
Remarks:
Altitude:
(Current/Filed)
36,000ft
Speed:
(Current/Filed)
450kts
Departed: 04-Oct-19 04:04 PM
Arrived: 04-Oct-19 05:03 PM
Distance/Time
Traveled:
305nm/0:59
Distance/Time
To Go:
Arrived

Flight Plot

Page will automatically refresh every two minutes.

Flight plan parsing failed; only flown route is shown


Map Options




Map Legend


Flown Route
Filed Route
Departure Airport
Arrival Airport
Navaid (VOR, NDB)
Fix

Horizontal Profiles

Position Reports

Time Latitude Longitude Heading Altitude Ground
Speed
04-Oct-19 15:14 40.504862 -122.298946 315 511ft 0kts
04-Oct-19 15:15 40.504862 -122.298946 315 511ft 0kts
04-Oct-19 15:16 40.504862 -122.298946 315 511ft 0kts
04-Oct-19 15:17 40.504862 -122.298946 315 511ft 0kts
04-Oct-19 15:18 40.504862 -122.298946 315 511ft 0kts
04-Oct-19 15:19 40.504862 -122.298946 315 511ft 0kts
04-Oct-19 15:20 40.504862 -122.298946 315 511ft 0kts
04-Oct-19 15:21 40.504862 -122.298946 315 511ft 0kts
04-Oct-19 15:22 40.504862 -122.298946 315 511ft 0kts
04-Oct-19 15:23 40.504862 -122.298946 315 511ft 0kts
04-Oct-19 15:24 40.504862 -122.298946 315 511ft 0kts
04-Oct-19 15:25 40.504862 -122.298946 315 511ft 0kts
04-Oct-19 15:26 40.504862 -122.298946 315 511ft 0kts
04-Oct-19 15:27 40.504862 -122.298946 315 511ft 0kts
04-Oct-19 15:28 40.504862 -122.298946 315 511ft 0kts
04-Oct-19 15:29 40.504862 -122.298946 315 511ft 0kts
04-Oct-19 15:30 40.504862 -122.298946 315 511ft 0kts
04-Oct-19 15:32 40.504862 -122.298946 315 511ft 0kts
04-Oct-19 15:33 40.504862 -122.298946 315 511ft 0kts
04-Oct-19 15:34 40.504862 -122.298946 315 511ft 0kts
04-Oct-19 15:35 40.504862 -122.298946 315 511ft 0kts
04-Oct-19 15:36 40.504862 -122.298946 315 511ft 0kts
04-Oct-19 15:37 40.504862 -122.298946 315 511ft 0kts
04-Oct-19 15:38 40.504862 -122.298946 315 511ft 0kts
04-Oct-19 15:39 40.504862 -122.298946 315 511ft 0kts
04-Oct-19 15:40 40.504862 -122.298946 315 511ft 0kts
04-Oct-19 15:41 40.504862 -122.298946 315 511ft 0kts
04-Oct-19 15:42 40.504862 -122.298946 315 511ft 0kts
04-Oct-19 15:43 40.504862 -122.298946 315 511ft 0kts
04-Oct-19 15:44 40.504862 -122.298946 315 511ft 0kts
04-Oct-19 15:45 40.504862 -122.298946 315 511ft 0kts
04-Oct-19 15:46 40.504862 -122.298946 315 511ft 0kts
04-Oct-19 15:47 40.504862 -122.298946 315 511ft 0kts
04-Oct-19 15:48 40.504862 -122.298946 315 511ft 0kts
04-Oct-19 15:49 40.504862 -122.298946 315 511ft 0kts
04-Oct-19 15:50 40.504862 -122.298946 315 511ft 0kts
04-Oct-19 15:50 40.504862 -122.298946 315 511ft 0kts
04-Oct-19 15:52 40.504862 -122.298946 315 511ft 0kts
04-Oct-19 15:53 40.504862 -122.298946 315 511ft 0kts
04-Oct-19 15:53 40.504862 -122.298946 315 511ft 0kts
04-Oct-19 15:54 40.504862 -122.298946 315 511ft 0kts
04-Oct-19 15:56 40.504704 -122.298737 315 511ft 2kts
04-Oct-19 15:56 40.504450 -122.298404 315 511ft 0kts
04-Oct-19 15:57 40.504451 -122.298404 315 511ft 0kts
04-Oct-19 15:59 40.504451 -122.298404 315 511ft 0kts
04-Oct-19 15:59 40.504506 -122.298508 267 511ft 3kts
04-Oct-19 16:00 40.502275 -122.296381 132 511ft 13kts
04-Oct-19 16:01 40.501963 -122.295957 137 511ft 3kts
04-Oct-19 16:02 40.501865 -122.294900 5 511ft 0kts
04-Oct-19 16:03 40.507159 -122.294886 0 511ft 106kts
04-Oct-19 16:04 40.550373 -122.278164 20 2572ft 210kts
04-Oct-19 16:05 40.614106 -122.260001 14 5580ft 267kts
04-Oct-19 16:06 40.687078 -122.233675 12 9113ft 283kts
04-Oct-19 16:07 40.766983 -122.229760 335 11360ft 327kts
04-Oct-19 16:08 40.853320 -122.272342 340 14556ft 336kts
04-Oct-19 16:09 40.943193 -122.308964 341 17479ft 343kts
04-Oct-19 16:10 41.035246 -122.344700 340 20014ft 350kts
04-Oct-19 16:11 41.125851 -122.379431 339 22209ft 355kts
04-Oct-19 16:12 41.221262 -122.415863 339 24190ft 360kts
04-Oct-19 16:13 41.317721 -122.453066 338 25930ft 364kts
04-Oct-19 16:14 41.415098 -122.490802 338 27448ft 367kts
04-Oct-19 16:15 41.513256 -122.528959 338 28771ft 370kts
04-Oct-19 16:16 41.612699 -122.567770 338 29876ft 375kts
04-Oct-19 16:17 41.712641 -122.606902 338 30882ft 377kts
04-Oct-19 16:18 41.813734 -122.646606 338 31749ft 380kts
04-Oct-19 16:19 41.913576 -122.687667 338 33097ft 368kts
04-Oct-19 16:20 42.008992 -122.725852 338 34169ft 363kts
04-Oct-19 16:21 42.100736 -122.762366 338 34689ft 367kts
04-Oct-19 16:22 42.199200 -122.801076 338 35284ft 371kts
04-Oct-19 16:23 42.296978 -122.839950 338 36274ft 359kts
04-Oct-19 16:24 42.391541 -122.877777 338 36291ft 351kts
04-Oct-19 16:25 42.484647 -122.915102 338 36291ft 349kts
04-Oct-19 16:26 42.584553 -122.910310 355 36293ft 369kts
04-Oct-19 16:27 42.687725 -122.901666 354 36290ft 375kts
04-Oct-19 16:28 42.792260 -122.895020 354 36288ft 381kts
04-Oct-19 16:29 42.898515 -122.888638 354 36285ft 386kts
04-Oct-19 16:30 43.006557 -122.882155 352 36280ft 391kts
04-Oct-19 16:31 43.109830 -122.876016 351 36292ft 397kts
04-Oct-19 16:32 43.221227 -122.869604 351 36297ft 404kts
04-Oct-19 16:33 43.334360 -122.862837 351 36296ft 411kts
04-Oct-19 16:34 43.449445 -122.855928 351 36294ft 416kts
04-Oct-19 16:35 43.566021 -122.848884 351 36236ft 417kts
04-Oct-19 16:36 43.679723 -122.841876 351 34121ft 404kts
04-Oct-19 16:37 43.793380 -122.835055 352 31272ft 406kts
04-Oct-19 16:38 43.904157 -122.828261 352 29062ft 395kts
04-Oct-19 16:39 44.012396 -122.821479 353 26888ft 386kts
04-Oct-19 16:40 44.113298 -122.815445 354 24932ft 377kts
04-Oct-19 16:41 44.216974 -122.809068 354 22918ft 369kts
04-Oct-19 16:42 44.318269 -122.802893 355 20981ft 362kts
04-Oct-19 16:43 44.417643 -122.789074 15 19064ft 368kts
04-Oct-19 16:44 44.513198 -122.748108 10 17305ft 355kts
04-Oct-19 16:45 44.607308 -122.715185 359 15572ft 341kts
04-Oct-19 16:46 44.701029 -122.706760 0 13862ft 335kts
04-Oct-19 16:47 44.792801 -122.697022 1 12217ft 329kts
04-Oct-19 16:48 44.887367 -122.686817 2 11998ft 367kts
04-Oct-19 16:49 44.991880 -122.675375 2 11986ft 373kts
04-Oct-19 16:50 45.081328 -122.607552 35 11987ft 370kts
04-Oct-19 16:51 45.155958 -122.525445 35 11226ft 347kts
04-Oct-19 16:52 45.226996 -122.447955 35 9577ft 301kts
04-Oct-19 16:53 45.293098 -122.378211 35 8532ft 290kts
04-Oct-19 16:54 45.360195 -122.316994 8 7367ft 283kts
04-Oct-19 16:55 45.433429 -122.320809 355 5964ft 245kts
04-Oct-19 16:56 45.494132 -122.330282 321 4592ft 194kts
04-Oct-19 16:57 45.501319 -122.399146 270 2973ft 173kts
04-Oct-19 16:58 45.525420 -122.446607 302 2144ft 123kts
04-Oct-19 16:59 45.543566 -122.489432 297 1546ft 129kts
04-Oct-19 17:00 45.561913 -122.535992 299 797ft 134kts
04-Oct-19 17:01 45.579767 -122.581962 300 111ft 132kts
04-Oct-19 17:02 45.589751 -122.604182 44 38ft 17kts
04-Oct-19 17:03 45.589850 -122.600017 79 38ft 4kts
04-Oct-19 17:04 45.589852 -122.600000 80 38ft 0kts
04-Oct-19 17:05 45.589852 -122.600000 80 38ft 0kts
04-Oct-19 17:06 45.589852 -122.600000 80 38ft 0kts
04-Oct-19 17:07 45.589852 -122.600000 80 38ft 0kts
04-Oct-19 17:08 45.589852 -122.600000 80 38ft 0kts
04-Oct-19 17:09 45.589852 -122.600000 80 38ft 0kts
04-Oct-19 17:10 45.589852 -122.600000 80 38ft 0kts
04-Oct-19 17:11 45.589852 -122.600000 80 38ft 0kts
04-Oct-19 17:12 45.589852 -122.600000 80 38ft 0kts
04-Oct-19 17:13 45.589852 -122.600000 80 38ft 0kts
04-Oct-19 17:14 45.589852 -122.600000 80 38ft 0kts
04-Oct-19 17:15 45.589852 -122.600000 80 38ft 0kts
04-Oct-19 17:16 45.589852 -122.600000 80 38ft 0kts

Navigation Log

Ident Type
Flight plan parsing failed, navigation log unavailable